sensor_id;sensor_type;location;lat;lon;timestamp;P1;P2;P0
74434;PMS7003;62867;52.038;29.256;2023-04-25T00:01:57;21.6;19.6;12.2
74434;PMS7003;62867;52.038;29.256;2023-04-25T00:06:33;23;18.5;11.5
74434;PMS7003;62867;52.038;29.256;2023-04-25T00:11:59;22.8;18.6;11.6
74434;PMS7003;62867;52.038;29.256;2023-04-25T00:16:47;19.8;17.6;11.6
74434;PMS7003;62867;52.038;29.256;2023-04-25T00:21:31;21.4;16.8;11.4
74434;PMS7003;62867;52.038;29.256;2023-04-25T00:26:47;19.8;17.4;11.2
74434;PMS7003;62867;52.038;29.256;2023-04-25T00:31:09;19.6;17.8;11.4
74434;PMS7003;62867;52.038;29.256;2023-04-25T00:36:19;20.4;17.6;11.2
74434;PMS7003;62867;52.038;29.256;2023-04-25T00:41:47;22.4;18.4;12
74434;PMS7003;62867;52.038;29.256;2023-04-25T00:47:00;19.8;17.4;12.2
74434;PMS7003;62867;52.038;29.256;2023-04-25T00:51:31;19.8;18.6;12.4
74434;PMS7003;62867;52.038;29.256;2023-04-25T00:56:47;23.4;18.8;12.4
74434;PMS7003;62867;52.038;29.256;2023-04-25T01:01:09;25;20.6;13.2
74434;PMS7003;62867;52.038;29.256;2023-04-25T01:06:43;24.3;20.8;13
74434;PMS7003;62867;52.038;29.256;2023-04-25T01:11:35;24.4;19;12
74434;PMS7003;62867;52.038;29.256;2023-04-25T01:16:21;22;17.6;11.6
74434;PMS7003;62867;52.038;29.256;2023-04-25T01:21:47;22.6;19.8;12.8
74434;PMS7003;62867;52.038;29.256;2023-04-25T01:26:29;24.4;20.4;13
74434;PMS7003;62867;52.038;29.256;2023-04-25T01:31:47;22.2;18.6;12.8
74434;PMS7003;62867;52.038;29.256;2023-04-25T01:36:59;22.8;19.8;12.8
74434;PMS7003;62867;52.038;29.256;2023-04-25T01:41:58;23.4;20.2;13.2
74434;PMS7003;62867;52.038;29.256;2023-04-25T01:46:09;25;20.2;13.8
74434;PMS7003;62867;52.038;29.256;2023-04-25T01:51:47;26.4;22.2;13.8
74434;PMS7003;62867;52.038;29.256;2023-04-25T01:56:59;26.6;23;14.6
74434;PMS7003;62867;52.038;29.256;2023-04-25T02:01:21;27.6;22.4;14
74434;PMS7003;62867;52.038;29.256;2023-04-25T02:06:35;27.3;22.5;14.3
74434;PMS7003;62867;52.038;29.256;2023-04-25T02:11:21;28.2;22.8;14.8
74434;PMS7003;62867;52.038;29.256;2023-04-25T02:16:43;27.8;23;14
74434;PMS7003;62867;52.038;29.256;2023-04-25T02:21:59;29.4;23.4;15.2
74434;PMS7003;62867;52.038;29.256;2023-04-25T02:26:31;28.2;23.2;16.2
74434;PMS7003;62867;52.038;29.256;2023-04-25T02:31:59;29.6;23.4;15.6
74434;PMS7003;62867;52.038;29.256;2023-04-25T02:36:47;29.8;26;16.6
74434;PMS7003;62867;52.038;29.256;2023-04-25T02:41:25;27.4;24.6;15.6
74434;PMS7003;62867;52.038;29.256;2023-04-25T02:46:31;30.4;24.2;15.6
74434;PMS7003;62867;52.038;29.256;2023-04-25T02:51:37;32.2;25;14.6
74434;PMS7003;62867;52.038;29.256;2023-04-25T02:56:21;31.8;24.6;16.2
74434;PMS7003;62867;52.038;29.256;2023-04-25T03:01:43;30.4;27;16.4
74434;PMS7003;62867;52.038;29.256;2023-04-25T03:06:59;28.6;24.2;15.6
74434;PMS7003;62867;52.038;29.256;2023-04-25T03:11:09;27.3;23;15.5
74434;PMS7003;62867;52.038;29.256;2023-04-25T03:16:59;26.4;23.6;14.6
74434;PMS7003;62867;52.038;29.256;2023-04-25T03:21:09;27.4;23.2;15.6
74434;PMS7003;62867;52.038;29.256;2023-04-25T03:26:47;29.4;24.6;15.8
74434;PMS7003;62867;52.038;29.256;2023-04-25T03:31:47;31.6;26.8;16.4
74434;PMS7003;62867;52.038;29.256;2023-04-25T03:36:31;31.4;26.4;15.8
74434;PMS7003;62867;52.038;29.256;2023-04-25T03:41:19;29.6;23.8;15.2
74434;PMS7003;62867;52.038;29.256;2023-04-25T03:46:47;31;24.2;15.8
74434;PMS7003;62867;52.038;29.256;2023-04-25T03:51:59;30;26;16
74434;PMS7003;62867;52.038;29.256;2023-04-25T03:56:45;29.4;26;16.6
74434;PMS7003;62867;52.038;29.256;2023-04-25T04:01:35;28.2;24.8;16
74434;PMS7003;62867;52.038;29.256;2023-04-25T04:06:57;33.2;25.6;15.8
74434;PMS7003;62867;52.038;29.256;2023-04-25T04:11:59;29.8;24.5;16
74434;PMS7003;62867;52.038;29.256;2023-04-25T04:16:23;27.4;24.4;15.4
74434;PMS7003;62867;52.038;29.256;2023-04-25T04:21:09;27.4;24.4;16
74434;PMS7003;62867;52.038;29.256;2023-04-25T04:26:59;29;24.8;16.2
74434;PMS7003;62867;52.038;29.256;2023-04-25T04:31:48;30.6;24.4;16
74434;PMS7003;62867;52.038;29.256;2023-04-25T04:36:19;28.8;24.6;14.8
74434;PMS7003;62867;52.038;29.256;2023-04-25T04:41:09;27;23.8;15
74434;PMS7003;62867;52.038;29.256;2023-04-25T04:46:59;25.6;22.6;14.6
74434;PMS7003;62867;52.038;29.256;2023-04-25T04:51:09;28.2;24.6;16.2
74434;PMS7003;62867;52.038;29.256;2023-04-25T04:56:19;27.4;24;15.2
74434;PMS7003;62867;52.038;29.256;2023-04-25T05:01:59;29.8;26.2;16.4
74434;PMS7003;62867;52.038;29.256;2023-04-25T05:06:33;28.6;24.4;16.4
74434;PMS7003;62867;52.038;29.256;2023-04-25T05:11:21;28.3;23;15
74434;PMS7003;62867;52.038;29.256;2023-04-25T05:16:43;30;25.2;16.2
74434;PMS7003;62867;52.038;29.256;2023-04-25T05:21:55;27.4;24.2;15.6
74434;PMS7003;62867;52.038;29.256;2023-04-25T05:26:59;31;25.4;17.2
74434;PMS7003;62867;52.038;29.256;2023-04-25T05:31:19;26.2;22.8;15.6
74434;PMS7003;62867;52.038;29.256;2023-04-25T05:36:59;26.4;23;14.4
74434;PMS7003;62867;52.038;29.256;2023-04-25T05:41:47;31;25.6;15.6
74434;PMS7003;62867;52.038;29.256;2023-04-25T05:46:47;31.6;26.6;17.4
74434;PMS7003;62867;52.038;29.256;2023-04-25T05:51:59;29.8;25;16.8
74434;PMS7003;62867;52.038;29.256;2023-04-25T05:56:47;25.8;22;14.6
74434;PMS7003;62867;52.038;29.256;2023-04-25T06:01:43;27.2;23.2;14.8
74434;PMS7003;62867;52.038;29.256;2023-04-25T06:06:43;24.2;22.2;14.2
74434;PMS7003;62867;52.038;29.256;2023-04-25T06:11:59;28;23.8;14.8
74434;PMS7003;62867;52.038;29.256;2023-04-25T06:16:35;30.2;23.4;15.4
74434;PMS7003;62867;52.038;29.256;2023-04-25T06:21:59;28;24.6;16.2
74434;PMS7003;62867;52.038;29.256;2023-04-25T06:26:09;27.2;23.6;16.2
74434;PMS7003;62867;52.038;29.256;2023-04-25T06:31:09;28.4;25;16.2
74434;PMS7003;62867;52.038;29.256;2023-04-25T06:36:47;24.8;22;15
74434;PMS7003;62867;52.038;29.256;2023-04-25T06:41:59;25;21.8;15.2
74434;PMS7003;62867;52.038;29.256;2023-04-25T06:46:21;27.2;22;14
74434;PMS7003;62867;52.038;29.256;2023-04-25T06:51:45;24.6;21.6;14.4
74434;PMS7003;62867;52.038;29.256;2023-04-25T06:56:59;25.6;21.4;13.6
74434;PMS7003;62867;52.038;29.256;2023-04-25T07:01:59;25.2;21.6;14
74434;PMS7003;62867;52.038;29.256;2023-04-25T07:06:35;24.4;21;14
74434;PMS7003;62867;52.038;29.256;2023-04-25T07:11:59;24;19.5;14
74434;PMS7003;62867;52.038;29.256;2023-04-25T07:17:01;22.6;19.2;12.4
74434;PMS7003;62867;52.038;29.256;2023-04-25T07:21:47;22;18.4;12.2
74434;PMS7003;62867;52.038;29.256;2023-04-25T07:26:09;22;18.4;12.4
74434;PMS7003;62867;52.038;29.256;2023-04-25T07:32:01;21.4;18.6;12.4
74434;PMS7003;62867;52.038;29.256;2023-04-25T07:36:49;23.4;19.4;12.2
74434;PMS7003;62867;52.038;29.256;2023-04-25T07:41:09;21.4;18.4;12
74434;PMS7003;62867;52.038;29.256;2023-04-25T07:46:45;19.2;16.8;11.6
74434;PMS7003;62867;52.038;29.256;2023-04-25T07:51:49;22;17.8;11.4
74434;PMS7003;62867;52.038;29.256;2023-04-25T07:56:21;20;17.8;11.8
74434;PMS7003;62867;52.038;29.256;2023-04-25T08:01:31;19.4;16.4;11.8
74434;PMS7003;62867;52.038;29.256;2023-04-25T08:07:01;20.8;17.6;11.2
74434;PMS7003;62867;52.038;29.256;2023-04-25T08:11:09;19.5;15.8;11
74434;PMS7003;62867;52.038;29.256;2023-04-25T08:16:35;18.4;16.2;11.2
74434;PMS7003;62867;52.038;29.256;2023-04-25T08:21:43;17;13.4;9.2
74434;PMS7003;62867;52.038;29.256;2023-04-25T08:26:09;17;14.8;10.2
74434;PMS7003;62867;52.038;29.256;2023-04-25T08:31:47;16.8;14.4;9.2
74434;PMS7003;62867;52.038;29.256;2023-04-25T08:36:33;15.8;13;9.2
74434;PMS7003;62867;52.038;29.256;2023-04-25T08:42:02;18.2;14.4;10.2
74434;PMS7003;62867;52.038;29.256;2023-04-25T08:47:02;15.4;13.6;9
74434;PMS7003;62867;52.038;29.256;2023-04-25T08:51:49;19.6;14.4;9.8
74434;PMS7003;62867;52.038;29.256;2023-04-25T08:56:31;19.8;18;11
74434;PMS7003;62867;52.038;29.256;2023-04-25T09:02:01;18.6;16.6;11.8
74434;PMS7003;62867;52.038;29.256;2023-04-25T09:06:10;22.2;19.4;13
74434;PMS7003;62867;52.038;29.256;2023-04-25T09:11:43;21.4;16.8;12.4
74434;PMS7003;62867;52.038;29.256;2023-04-25T09:16:09;17.3;15.5;10.5
74434;PMS7003;62867;52.038;29.256;2023-04-25T09:21:21;14.4;12.8;8.8
74434;PMS7003;62867;52.038;29.256;2023-04-25T09:26:45;26.4;22;14.6
74434;PMS7003;62867;52.038;29.256;2023-04-25T09:31:45;18.8;17;11.4
74434;PMS7003;62867;52.038;29.256;2023-04-25T09:37:01;16.6;14.4;10.2
74434;PMS7003;62867;52.038;29.256;2023-04-25T09:41:47;14.4;12;8.2
74434;PMS7003;62867;52.038;29.256;2023-04-25T09:46:10;15.4;13.6;8.8
74434;PMS7003;62867;52.038;29.256;2023-04-25T09:51:19;14.2;11.6;7.4
74434;PMS7003;62867;52.038;29.256;2023-04-25T09:56:48;13.8;11.8;7.8
74434;PMS7003;62867;52.038;29.256;2023-04-25T10:02:01;13.8;12;8
74434;PMS7003;62867;52.038;29.256;2023-04-25T10:06:12;12;10.6;8
74434;PMS7003;62867;52.038;29.256;2023-04-25T10:11:35;12;10.2;6.8
74434;PMS7003;62867;52.038;29.256;2023-04-25T10:17:00;13.8;11;7.5
74434;PMS7003;62867;52.038;29.256;2023-04-25T10:22:03;11;10;7.4
74434;PMS7003;62867;52.038;29.256;2023-04-25T10:26:09;11.4;10.8;7.2
74434;PMS7003;62867;52.038;29.256;2023-04-25T10:31:21;13.2;10.8;6.8
74434;PMS7003;62867;52.038;29.256;2023-04-25T10:37:01;11.8;10.6;7.8
74434;PMS7003;62867;52.038;29.256;2023-04-25T10:42:02;13.8;12;7.6
74434;PMS7003;62867;52.038;29.256;2023-04-25T10:46:21;14.2;12.4;8.4
74434;PMS7003;62867;52.038;29.256;2023-04-25T10:51:22;13.4;11.2;7.6
74434;PMS7003;62867;52.038;29.256;2023-04-25T10:57:01;11.4;9.8;7
74434;PMS7003;62867;52.038;29.256;2023-04-25T11:01:09;11.4;9.8;6.8
74434;PMS7003;62867;52.038;29.256;2023-04-25T11:06:15;13;10.8;7.2
74434;PMS7003;62867;52.038;29.256;2023-04-25T11:11:31;12.2;10;6.4
74434;PMS7003;62867;52.038;29.256;2023-04-25T11:16:09;11.8;10.5;6.5
74434;PMS7003;62867;52.038;29.256;2023-04-25T11:21:10;14.2;10.6;6.8
74434;PMS7003;62867;52.038;29.256;2023-04-25T11:26:44;13.4;11.4;7.6
74434;PMS7003;62867;52.038;29.256;2023-04-25T11:31:31;15.8;13.4;8.2
74434;PMS7003;62867;52.038;29.256;2023-04-25T11:36:35;17.6;14.8;9.4
74434;PMS7003;62867;52.038;29.256;2023-04-25T11:41:46;21.4;19;12.2
74434;PMS7003;62867;52.038;29.256;2023-04-25T11:47:02;23.4;18.4;11.4
74434;PMS7003;62867;52.038;29.256;2023-04-25T11:51:48;11.2;9.6;7
74434;PMS7003;62867;52.038;29.256;2023-04-25T11:56:59;17;15.2;9.2
74434;PMS7003;62867;52.038;29.256;2023-04-25T12:01:32;17;13.6;9.8
74434;PMS7003;62867;52.038;29.256;2023-04-25T12:06:59;10.6;9.2;6.2
74434;PMS7003;62867;52.038;29.256;2023-04-25T12:11:20;26.4;21.6;13.4
74434;PMS7003;62867;52.038;29.256;2023-04-25T12:16:44;11.3;8.8;5.5
74434;PMS7003;62867;52.038;29.256;2023-04-25T12:21:34;8.8;7.4;5.4
74434;PMS7003;62867;52.038;29.256;2023-04-25T12:26:09;9.4;7.2;5.2
74434;PMS7003;62867;52.038;29.256;2023-04-25T12:31:48;9.8;8.8;6
74434;PMS7003;62867;52.038;29.256;2023-04-25T12:36:31;15.6;14.8;10
74434;PMS7003;62867;52.038;29.256;2023-04-25T12:41:32;12;10.6;7
74434;PMS7003;62867;52.038;29.256;2023-04-25T12:46:59;16.4;13.4;9.2
74434;PMS7003;62867;52.038;29.256;2023-04-25T12:52:00;10.6;9.2;6.6
74434;PMS7003;62867;52.038;29.256;2023-04-25T12:56:10;11.6;9.8;6.8
74434;PMS7003;62867;52.038;29.256;2023-04-25T13:01:48;10.8;10;7
74434;PMS7003;62867;52.038;29.256;2023-04-25T13:06:48;10.8;9;6.2
74434;PMS7003;62867;52.038;29.256;2023-04-25T13:11:09;11.6;9.4;6.2
74434;PMS7003;62867;52.038;29.256;2023-04-25T13:16:22;12.3;10;6.8
74434;PMS7003;62867;52.038;29.256;2023-04-25T13:21:24;10.8;10.2;7.6
74434;PMS7003;62867;52.038;29.256;2023-04-25T13:27:00;18.4;15.8;9.8
74434;PMS7003;62867;52.038;29.256;2023-04-25T13:32:00;12.4;10.2;7
74434;PMS7003;62867;52.038;29.256;2023-04-25T13:36:32;16;13.4;8.6
74434;PMS7003;62867;52.038;29.256;2023-04-25T13:42:00;13.8;11.8;7.6
74434;PMS7003;62867;52.038;29.256;2023-04-25T13:46:48;12.6;10.8;6.8
74434;PMS7003;62867;52.038;29.256;2023-04-25T13:51:10;13;10.8;6.8
74434;PMS7003;62867;52.038;29.256;2023-04-25T13:56:32;21.8;17.4;10.6
74434;PMS7003;62867;52.038;29.256;2023-04-25T14:02:00;11.6;10.4;6.8
74434;PMS7003;62867;52.038;29.256;2023-04-25T14:06:10;13.8;10.8;6.8
74434;PMS7003;62867;52.038;29.256;2023-04-25T14:11:30;11.8;10.4;7.2
74434;PMS7003;62867;52.038;29.256;2023-04-25T14:17:00;13.4;11;7.2
74434;PMS7003;62867;52.038;29.256;2023-04-25T14:21:36;12.8;11.5;8
74434;PMS7003;62867;52.038;29.256;2023-04-25T14:26:34;12.6;10;6.8
74434;PMS7003;62867;52.038;29.256;2023-04-25T14:31:42;13;11.8;7.4
74434;PMS7003;62867;52.038;29.256;2023-04-25T14:36:22;13.4;11;7.8
74434;PMS7003;62867;52.038;29.256;2023-04-25T14:41:48;11;9.4;6.8
74434;PMS7003;62867;52.038;29.256;2023-04-25T14:46:20;13.8;11.4;7.4
74434;PMS7003;62867;52.038;29.256;2023-04-25T14:52:00;12.6;10.8;7
74434;PMS7003;62867;52.038;29.256;2023-04-25T14:56:48;12.6;10.6;7.2
74434;PMS7003;62867;52.038;29.256;2023-04-25T15:01:58;12.8;11.4;7.2
74434;PMS7003;62867;52.038;29.256;2023-04-25T15:06:32;14.4;11.4;7.4
74434;PMS7003;62867;52.038;29.256;2023-04-25T15:11:48;12.8;11.4;7.6
74434;PMS7003;62867;52.038;29.256;2023-04-25T15:16:48;13.4;12;8
74434;PMS7003;62867;52.038;29.256;2023-04-25T15:21:46;11.5;10.8;7.5
74434;PMS7003;62867;52.038;29.256;2023-04-25T15:26:36;14.6;12.4;9
74434;PMS7003;62867;52.038;29.256;2023-04-25T15:31:10;13.4;12.2;7.8
74434;PMS7003;62867;52.038;29.256;2023-04-25T15:37:02;15.2;13;8
74434;PMS7003;62867;52.038;29.256;2023-04-25T15:41:20;14.8;12.4;8.6
74434;PMS7003;62867;52.038;29.256;2023-04-25T15:46:10;15.2;12.2;8.4
74434;PMS7003;62867;52.038;29.256;2023-04-25T15:52:02;14.4;12.6;8.6
74434;PMS7003;62867;52.038;29.256;2023-04-25T15:57:02;16.2;14.2;9.6
74434;PMS7003;62867;52.038;29.256;2023-04-25T16:01:20;16;14;9.2
74434;PMS7003;62867;52.038;29.256;2023-04-25T16:06:48;17;14;9.6
74434;PMS7003;62867;52.038;29.256;2023-04-25T16:11:50;16.8;12.8;9
74434;PMS7003;62867;52.038;29.256;2023-04-25T16:16:10;15.4;12.8;8.6
74434;PMS7003;62867;52.038;29.256;2023-04-25T16:21:10;14.8;13.5;9
74434;PMS7003;62867;52.038;29.256;2023-04-25T16:26:44;16;13.4;8.6
74434;PMS7003;62867;52.038;29.256;2023-04-25T16:31:58;15.6;13.8;8.8
74434;PMS7003;62867;52.038;29.256;2023-04-25T16:37:00;16.4;15;9.6
74434;PMS7003;62867;52.038;29.256;2023-04-25T16:41:20;16.6;14;9
74434;PMS7003;62867;52.038;29.256;2023-04-25T16:46:32;18.4;15.2;9.8
74434;PMS7003;62867;52.038;29.256;2023-04-25T16:51:50;19;15;9.4
74434;PMS7003;62867;52.038;29.256;2023-04-25T16:56:10;17.8;14.8;10.4
74434;PMS7003;62867;52.038;29.256;2023-04-25T17:01:32;17.2;15;10.6
74434;PMS7003;62867;52.038;29.256;2023-04-25T17:06:48;17.4;15.6;10.2
74434;PMS7003;62867;52.038;29.256;2023-04-25T17:11:22;20.6;18.2;12.2
74434;PMS7003;62867;52.038;29.256;2023-04-25T17:17:02;21;17;11.2
74434;PMS7003;62867;52.038;29.256;2023-04-25T17:22:02;19.3;16;10.8
74434;PMS7003;62867;52.038;29.256;2023-04-25T17:26:22;20.4;18.4;12.2
74434;PMS7003;62867;52.038;29.256;2023-04-25T17:32:02;22;20;14
74434;PMS7003;62867;52.038;29.256;2023-04-25T17:36:34;27.8;23.8;15.6
74434;PMS7003;62867;52.038;29.256;2023-04-25T17:41:22;28.2;23.2;15
74434;PMS7003;62867;52.038;29.256;2023-04-25T17:46:48;25;22;15
74434;PMS7003;62867;52.038;29.256;2023-04-25T17:51:10;29.2;25.2;15.2
74434;PMS7003;62867;52.038;29.256;2023-04-25T17:56:10;25.6;22.4;15
74434;PMS7003;62867;52.038;29.256;2023-04-25T18:01:22;28.4;23.6;16
74434;PMS7003;62867;52.038;29.256;2023-04-25T18:07:02;26;22.2;15.2
74434;PMS7003;62867;52.038;29.256;2023-04-25T18:11:32;31.2;24;15.8
74434;PMS7003;62867;52.038;29.256;2023-04-25T18:17:02;31.2;27;17.4
74434;PMS7003;62867;52.038;29.256;2023-04-25T18:21:36;30.5;25.3;17.8
74434;PMS7003;62867;52.038;29.256;2023-04-25T18:26:46;28.4;23;15.4
74434;PMS7003;62867;52.038;29.256;2023-04-25T18:31:10;27.2;22;15
74434;PMS7003;62867;52.038;29.256;2023-04-25T18:36:10;27;22;15
74434;PMS7003;62867;52.038;29.256;2023-04-25T18:41:48;28.2;23.6;15.4
74434;PMS7003;62867;52.038;29.256;2023-04-25T18:46:22;26.6;24;15.8
74434;PMS7003;62867;52.038;29.256;2023-04-25T18:51:10;30.4;25.6;16.2
74434;PMS7003;62867;52.038;29.256;2023-04-25T18:56:52;28;25;15.6
74434;PMS7003;62867;52.038;29.256;2023-04-25T19:02:02;34.8;27.6;18.8
74434;PMS7003;62867;52.038;29.256;2023-04-25T19:06:10;38.4;31.2;19.6
74434;PMS7003;62867;52.038;29.256;2023-04-25T19:11:48;35.8;30.6;18.6
74434;PMS7003;62867;52.038;29.256;2023-04-25T19:16:48;33;30;20
74434;PMS7003;62867;52.038;29.256;2023-04-25T19:21:22;42.6;32;20.6
74434;PMS7003;62867;52.038;29.256;2023-04-25T19:26:48;40.5;32.3;21.3
74434;PMS7003;62867;52.038;29.256;2023-04-25T19:31:44;43.6;34.6;21.4
74434;PMS7003;62867;52.038;29.256;2023-04-25T19:37:02;40.4;32.8;21
74434;PMS7003;62867;52.038;29.256;2023-04-25T19:42:00;46;35.4;22.2
74434;PMS7003;62867;52.038;29.256;2023-04-25T19:46:10;49;38.2;24
74434;PMS7003;62867;52.038;29.256;2023-04-25T19:52:02;49;37.8;23.4
74434;PMS7003;62867;52.038;29.256;2023-04-25T19:56:50;51.4;38.2;23.8
74434;PMS7003;62867;52.038;29.256;2023-04-25T20:01:10;45.8;34.6;21.8
74434;PMS7003;62867;52.038;29.256;2023-04-25T20:06:46;52.6;40.6;25.8
74434;PMS7003;62867;52.038;29.256;2023-04-25T20:11:48;53;39;23.6
74434;PMS7003;62867;52.038;29.256;2023-04-25T20:16:20;46.4;36.4;21.8
74434;PMS7003;62867;52.038;29.256;2023-04-25T20:21:44;49.8;38;24.6
74434;PMS7003;62867;52.038;29.256;2023-04-25T20:27:00;50.8;37.5;23.8
74434;PMS7003;62867;52.038;29.256;2023-04-25T20:31:22;46.2;35.2;22.6
74434;PMS7003;62867;52.038;29.256;2023-04-25T20:37:00;43.2;34.6;21.4
74434;PMS7003;62867;52.038;29.256;2023-04-25T20:41:10;44.4;34.8;22.2
74434;PMS7003;62867;52.038;29.256;2023-04-25T20:46:10;46;37.4;23.6
74434;PMS7003;62867;52.038;29.256;2023-04-25T20:51:48;48.8;37;23.2
74434;PMS7003;62867;52.038;29.256;2023-04-25T20:56:34;44.2;35.4;22.2
74434;PMS7003;62867;52.038;29.256;2023-04-25T21:01:20;42.6;33.8;21.6
74434;PMS7003;62867;52.038;29.256;2023-04-25T21:06:48;42.4;31.6;20.2
74434;PMS7003;62867;52.038;29.256;2023-04-25T21:12:02;41.4;32.8;20.6
74434;PMS7003;62867;52.038;29.256;2023-04-25T21:16:32;44.2;33.6;21.2
74434;PMS7003;62867;52.038;29.256;2023-04-25T21:21:24;43.2;33.4;20.4
74434;PMS7003;62867;52.038;29.256;2023-04-25T21:27:02;42.3;33.5;21.5
74434;PMS7003;62867;52.038;29.256;2023-04-25T21:32:02;46.2;34.6;20.8
74434;PMS7003;62867;52.038;29.256;2023-04-25T21:36:36;41.6;31.4;19.8
74434;PMS7003;62867;52.038;29.256;2023-04-25T21:41:10;42;31.6;19.6
74434;PMS7003;62867;52.038;29.256;2023-04-25T21:47:02;39.4;30.8;19.2
74434;PMS7003;62867;52.038;29.256;2023-04-25T21:51:50;36.8;30.4;19.4
74434;PMS7003;62867;52.038;29.256;2023-04-25T21:56:22;34.6;27.6;17.2
74434;PMS7003;62867;52.038;29.256;2023-04-25T22:01:46;34.2;28;17.6
74434;PMS7003;62867;52.038;29.256;2023-04-25T22:07:00;30.4;26;16.6
74434;PMS7003;62867;52.038;29.256;2023-04-25T22:11:48;30;26;16.4
74434;PMS7003;62867;52.038;29.256;2023-04-25T22:16:48;29.2;24.6;15.2
74434;PMS7003;62867;52.038;29.256;2023-04-25T22:22:02;29;25.2;15.4
74434;PMS7003;62867;52.038;29.256;2023-04-25T22:26:10;30.3;24.5;15.5
74434;PMS7003;62867;52.038;29.256;2023-04-25T22:31:10;28;25.2;15.4
74434;PMS7003;62867;52.038;29.256;2023-04-25T22:36:46;27.6;23.4;15.4
74434;PMS7003;62867;52.038;29.256;2023-04-25T22:41:22;26.2;22;15.2
74434;PMS7003;62867;52.038;29.256;2023-04-25T22:46:50;28;22;15.2
74434;PMS7003;62867;52.038;29.256;2023-04-25T22:51:22;28.6;23;14
74434;PMS7003;62867;52.038;29.256;2023-04-25T22:57:04;26.8;23;15.6
74434;PMS7003;62867;52.038;29.256;2023-04-25T23:01:36;25.8;22;14.2
74434;PMS7003;62867;52.038;29.256;2023-04-25T23:06:46;24.6;21.4;14.4
74434;PMS7003;62867;52.038;29.256;2023-04-25T23:11:20;27.8;22.4;14.8
74434;PMS7003;62867;52.038;29.256;2023-04-25T23:16:22;25.8;22;14
74434;PMS7003;62867;52.038;29.256;2023-04-25T23:21:58;26.4;22.4;14.4
74434;PMS7003;62867;52.038;29.256;2023-04-25T23:26:46;26;22.8;15
74434;PMS7003;62867;52.038;29.256;2023-04-25T23:31:10;23.4;21.6;13.2
74434;PMS7003;62867;52.038;29.256;2023-04-25T23:36:22;26.6;22;13.4
74434;PMS7003;62867;52.038;29.256;2023-04-25T23:41:44;24.2;21.4;13.8
74434;PMS7003;62867;52.038;29.256;2023-04-25T23:46:32;24.2;20.8;12.4
74434;PMS7003;62867;52.038;29.256;2023-04-25T23:51:22;25.2;20.2;13
74434;PMS7003;62867;52.038;29.256;2023-04-25T23:56:48;25.4;22.4;13.4
